Time;durP1;ratioP1;P1;durP2;ratioP2;P2;SDS_P1;SDS_P2;PMS_P1;PMS_P2;Temp;Humidity;BMP_temperature;BMP_pressure;BME280_temperature;BME280_humidity;BME280_pressure;Samples;Min_cycle;Max_cycle;Signal;HPM_P1;HPM_P2
2023/11/25 00:02:20;;;;;;;;;;;;;;;;;;4974269;28;19910;-48
2023/11/25 00:04:46;;;;;;;;;;;;;;;;;;4973966;28;19918;-46
2023/11/25 00:07:12;;;;;;;;;;;;;;;;;;4974717;28;19932;-46
2023/11/25 00:09:38;;;;;;;;;;;;;;;;;;4973628;28;19973;-47
2023/11/25 00:12:04;;;;;;;;;;;;;;;;;;4972982;28;19976;-48
2023/11/25 05:19:02;;;;;;;;;;;;;;;;;;4971625;28;19925;-49
2023/11/25 05:21:28;;;;;;;;;;;;;;;;;;4972082;28;19910;-50
2023/11/25 05:23:54;;;;;;;;;;;;;;;;;;4972288;28;20005;-45
2023/11/25 05:26:20;;;;;;;;;;;;;;;;;;4971877;28;20021;-49
2023/11/25 05:28:46;;;;;;;;;;;;;;;;;;4972163;28;19910;-46
2023/11/25 05:31:12;;;;;;;;;;;;;;;;;;4972145;28;20017;-48
2023/11/25 05:33:38;;;;;;;;;;;;;;;;;;4971888;28;19918;-48
2023/11/25 05:36:04;;;;;;;;;;;;;;;;;;4971691;28;19910;-45
2023/11/25 05:38:29;;;;;;;;;;;;;;;;;;4971967;28;19917;-45
2023/11/25 05:40:55;;;;;;;;;;;;;;;;;;4971863;28;19917;-47
2023/11/25 05:43:21;;;;;;;;;;;;;;;;;;4971725;28;19964;-46
2023/11/25 05:45:47;;;;;;;;;;;;;;;;;;4971551;28;19925;-46
2023/11/25 05:48:13;;;;;;;;;;;;;;;;;;4971870;28;19980;-49
2023/11/25 05:50:39;;;;;;;;;;;;;;;;;;4971668;28;19921;-46
2023/11/25 05:53:06;;;;;;;;;;;;;;;;;;4971695;28;19913;-45
2023/11/25 05:55:32;;;;;;;;;;;;;;;;;;4971686;28;19937;-47
2023/11/25 05:57:58;;;;;;;;;;;;;;;;;;4971419;28;19906;-47
2023/11/25 06:00:23;;;;;;;;;;;;;;;;;;4971447;28;19965;-46
2023/11/25 06:02:50;;;;;;;;;;;;;;;;;;4971399;28;19984;-46
2023/11/25 06:05:15;;;;;;;;;;;;;;;;;;4971994;28;19917;-48
2023/11/25 06:07:41;;;;;;;;;;;;;;;;;;4971312;28;20008;-45
2023/11/25 06:10:09;;;;;;;;;;;;;;;;;;4971478;28;19916;-48
2023/11/25 06:12:35;;;;;;;;;;;;;;;;;;4971218;28;19910;-45
2023/11/25 06:15:01;;;;;;;;;;;;;;;;;;4971169;28;20454;-48
2023/11/25 06:17:27;;;;;;;;;;;;;;;;;;4971003;28;19910;-46
2023/11/25 06:19:53;;;;;;;;;;;;;;;;;;4970486;28;20009;-45
2023/11/25 06:22:20;;;;;;;;;;;;;;;;;;4971121;28;19910;-45
2023/11/25 06:24:46;;;;;;;;;;;;;;;;;;4971521;28;19910;-46
2023/11/25 06:27:12;;;;;;;;;;;;;;;;;;4970888;28;19925;-47
2023/11/25 06:29:41;;;;;;;;;;;;;;;;;;4970637;28;20412;-46
2023/11/25 06:32:07;;;;;;;;;;;;;;;;;;4971285;28;20699;-48
2023/11/25 06:34:34;;;;;;;;;;;;;;;;;;4971901;28;19910;-46
2023/11/25 06:37:00;;;;;;;;;;;;;;;;;;4971770;28;20428;-46
2023/11/25 06:39:31;;;;;;;;;;;;;;;;;;4969877;28;20005;-47
2023/11/25 06:41:58;;;;;;;;;;;;;;;;;;4971420;28;19910;-48
2023/11/25 06:44:24;;;;;;;;;;;;;;;;;;4971694;28;20285;-45
2023/11/25 06:46:50;;;;;;;;;;;;;;;;;;4971489;28;19914;-48
2023/11/25 06:49:16;;;;;;;;;;;;;;;;;;4972103;28;19986;-46
2023/11/25 06:51:42;;;;;;;;;;;;;;;;;;4971805;28;19968;-45
2023/11/25 06:54:08;;;;;;;;;;;;;;;;;;4971691;28;20300;-44
2023/11/25 06:56:34;;;;;;;;;;;;;;;;;;4971398;28;19921;-46
2023/11/25 06:59:00;;;;;;;;;;;;;;;;;;4971597;28;19910;-44
2023/11/25 07:01:26;;;;;;;;;;;;;;;;;;4969592;28;19921;-47
2023/11/25 07:03:52;;;;;;;;;;;;;;;;;;4970574;28;19934;-45
2023/11/25 07:06:18;;;;;;;;;;;;;;;;;;4971977;28;19954;-48
2023/11/25 07:08:44;;;;;;;;;;;;;;;;;;4971026;28;19961;-46
2023/11/25 07:11:10;;;;;;;;;;;;;;;;;;4971752;28;19994;-48
2023/11/25 07:13:36;;;;;;;;;;;;;;;;;;4971671;28;20393;-45
2023/11/25 07:16:04;;;;;;;;;;;;;;;;;;4969390;28;19918;-46
2023/11/25 07:18:30;;;;;;;;;;;;;;;;;;4968846;28;19969;-45
2023/11/25 07:20:56;;;;;;;;;;;;;;;;;;4971163;28;19917;-45
2023/11/25 07:23:22;;;;;;;;;;;;;;;;;;4971670;28;19920;-45
2023/11/25 07:25:48;;;;;;;;;;;;;;;;;;4971889;28;19917;-48
2023/11/25 07:28:15;;;;;;;;;;;;;;;;;;4968834;28;19926;-48
2023/11/25 07:30:41;;;;;;;;;;;;;;;;;;4974221;28;19915;-48
2023/11/25 07:33:08;;;;;;;;;;;;;;;;;;4975407;28;19958;-45
2023/11/25 07:35:34;;;;;;;;;;;;;;;;;;4971243;28;20312;-45
2023/11/25 07:37:59;;;;;;;;;;;;;;;;;;4972498;28;19921;-46
2023/11/25 07:40:25;;;;;;;;;;;;;;;;;;4974524;28;20382;-47
2023/11/25 07:42:51;;;;;;;;;;;;;;;;;;4974827;28;19910;-46
2023/11/25 07:45:17;;;;;;;;;;;;;;;;;;4974671;28;19918;-47
2023/11/25 07:47:46;;;;;;;;;;;;;;;;;;4974839;28;20274;-46
2023/11/25 07:50:12;;;;;;;;;;;;;;;;;;4974919;28;20301;-45
2023/11/25 07:52:38;;;;;;;;;;;;;;;;;;4971308;28;19941;-45
2023/11/25 07:55:07;;;;;;;;;;;;;;;;;;4970346;28;19922;-47
2023/11/25 07:57:33;;;;;;;;;;;;;;;;;;4974881;28;19914;-46
2023/11/25 07:59:58;;;;;;;;;;;;;;;;;;4973898;28;19914;-46
2023/11/25 08:02:24;;;;;;;;;;;;;;;;;;4973760;28;19925;-45
2023/11/25 08:04:50;;;;;;;;;;;;;;;;;;4969000;28;19918;-46
2023/11/25 08:07:16;;;;;;;;;;;;;;;;;;4970064;28;19926;-49
2023/11/25 08:09:42;;;;;;;;;;;;;;;;;;4974202;28;19914;-49
2023/11/25 08:12:08;;;;;;;;;;;;;;;;;;4974819;28;20038;-49
2023/11/25 08:14:35;;;;;;;;;;;;;;;;;;4975294;28;19914;-49
2023/11/25 08:17:01;;;;;;;;;;;;;;;;;;4975437;28;19914;-49
2023/11/25 08:19:27;;;;;;;;;;;;;;;;;;4974646;28;19918;-48
2023/11/25 08:21:53;;;;;;;;;;;;;;;;;;4975155;28;19917;-49
2023/11/25 08:24:19;;;;;;;;;;;;;;;;;;4975279;28;20313;-48
2023/11/25 08:26:45;;;;;;;;;;;;;;;;;;4973163;28;19922;-46
2023/11/25 08:29:14;;;;;;;;;;;;;;;;;;4974677;28;19949;-47
2023/11/25 08:31:40;;;;;;;;;;;;;;;;;;4974382;28;19965;-46
2023/11/25 08:34:09;;;;;;;;;;;;;;;;;;4974080;28;20285;-46
2023/11/25 08:36:39;;;;;;;;;;;;;;;;;;4975053;28;20259;-48
2023/11/25 08:39:07;;;;;;;;;;;;;;;;;;4971956;28;19972;-49
2023/11/25 08:41:33;;;;;;;;;;;;;;;;;;4973104;28;19914;-46
2023/11/25 08:43:59;;;;;;;;;;;;;;;;;;4975041;28;19917;-46
2023/11/25 08:46:25;;;;;;;;;;;;;;;;;;4974895;28;20038;-47
2023/11/25 08:48:51;;;;;;;;;;;;;;;;;;4973978;28;19926;-46
2023/11/25 08:51:17;;;;;;;;;;;;;;;;;;4974613;28;20004;-47
2023/11/25 08:53:44;;;;;;;;;;;;;;;;;;4972786;28;20397;-50
2023/11/25 08:56:10;;;;;;;;;;;;;;;;;;4973013;28;19910;-47
2023/11/25 08:58:36;;;;;;;;;;;;;;;;;;4973163;28;19917;-46
2023/11/25 09:01:02;;;;;;;;;;;;;;;;;;4973031;28;19914;-48
2023/11/25 09:03:28;;;;;;;;;;;;;;;;;;4972618;28;20005;-47
2023/11/25 09:05:54;;;;;;;;;;;;;;;;;;4972166;28;19961;-48
2023/11/25 09:08:20;;;;;;;;;;;;;;;;;;4973453;28;20452;-46
2023/11/25 09:10:46;;;;;;;;;;;;;;;;;;4973368;28;20042;-49
2023/11/25 09:13:12;;;;;;;;;;;;;;;;;;4973140;28;20304;-46
2023/11/25 09:15:38;;;;;;;;;;;;;;;;;;4973245;28;20357;-47
2023/11/25 09:18:06;;;;;;;;;;;;;;;;;;4973090;28;19916;-46
2023/11/25 09:20:33;;;;;;;;;;;;;;;;;;4972912;28;19926;-48
2023/11/25 09:22:58;;;;;;;;;;;;;;;;;;4972987;28;20435;-47
2023/11/25 09:25:24;;;;;;;;;;;;;;;;;;4973006;28;19914;-46
2023/11/25 09:27:52;;;;;;;;;;;;;;;;;;4973238;28;19933;-48
2023/11/25 09:30:18;;;;;;;;;;;;;;;;;;4973346;28;19917;-46
2023/11/25 09:32:44;;;;;;;;;;;;;;;;;;4972828;28;19917;-47
2023/11/25 09:35:12;;;;;;;;;;;;;;;;;;4972765;28;19917;-46
2023/11/25 09:37:38;;;;;;;;;;;;;;;;;;4971414;28;19918;-49
2023/11/25 09:40:05;;;;;;;;;;;;;;;;;;4972570;28;19911;-46
2023/11/25 09:42:31;;;;;;;;;;;;;;;;;;4972594;28;19917;-47
2023/11/25 09:44:57;;;;;;;;;;;;;;;;;;4972580;28;19910;-47
2023/11/25 09:47:23;;;;;;;;;;;;;;;;;;4972324;28;19957;-48
2023/11/25 09:49:49;;;;;;;;;;;;;;;;;;4972622;28;19910;-46
2023/11/25 09:52:15;;;;;;;;;;;;;;;;;;4972255;28;19914;-47
2023/11/25 09:54:41;;;;;;;;;;;;;;;;;;4971461;28;19910;-47
2023/11/25 09:57:07;;;;;;;;;;;;;;;;;;4972209;28;19910;-46
2023/11/25 09:59:33;;;;;;;;;;;;;;;;;;4972210;28;19921;-50
2023/11/25 10:01:59;;;;;;;;;;;;;;;;;;4970303;28;19910;-48
2023/11/25 10:04:26;;;;;;;;;;;;;;;;;;4971317;28;19929;-47
2023/11/25 10:06:54;;;;;;;;;;;;;;;;;;4970836;28;20348;-47
2023/11/25 10:09:21;;;;;;;;;;;;;;;;;;4972358;28;19914;-51
2023/11/25 10:11:47;;;;;;;;;;;;;;;;;;4972317;28;19911;-47
2023/11/25 10:14:17;;;;;;;;;;;;;;;;;;4972067;28;19921;-47
2023/11/25 10:16:44;;;;;;;;;;;;;;;;;;4971793;28;19917;-47
2023/11/25 10:19:10;;;;;;;;;;;;;;;;;;4971571;28;19945;-48
2023/11/25 10:21:36;;;;;;;;;;;;;;;;;;4971480;28;19954;-47
2023/11/25 10:24:01;;;;;;;;;;;;;;;;;;4971497;28;20016;-49
2023/11/25 10:26:27;;;;;;;;;;;;;;;;;;4971753;28;19918;-50
2023/11/25 10:28:53;;;;;;;;;;;;;;;;;;4971580;28;20337;-46
2023/11/25 10:31:19;;;;;;;;;;;;;;;;;;4971750;28;19910;-48
2023/11/25 10:33:45;;;;;;;;;;;;;;;;;;4971498;28;20391;-48
2023/11/25 10:36:12;;;;;;;;;;;;;;;;;;4969856;28;19915;-47
2023/11/25 10:38:39;;;;;;;;;;;;;;;;;;4970658;28;20309;-47
2023/11/25 10:41:05;;;;;;;;;;;;;;;;;;4971249;28;19997;-47
2023/11/25 10:43:31;;;;;;;;;;;;;;;;;;4971079;28;20013;-48
2023/11/25 10:45:57;;;;;;;;;;;;;;;;;;4971143;28;20004;-49
2023/11/25 10:48:23;;;;;;;;;;;;;;;;;;4971303;28;19914;-50
2023/11/25 10:50:49;;;;;;;;;;;;;;;;;;4971331;28;19914;-46
2023/11/25 10:53:15;;;;;;;;;;;;;;;;;;4968934;28;19910;-48
2023/11/25 10:55:42;;;;;;;;;;;;;;;;;;4971051;28;20355;-49
2023/11/25 10:58:09;;;;;;;;;;;;;;;;;;4971164;28;19918;-48
2023/11/25 11:00:35;;;;;;;;;;;;;;;;;;4969950;28;19920;-48
2023/11/25 11:03:03;;;;;;;;;;;;;;;;;;4967739;28;19914;-48
2023/11/25 11:05:29;;;;;;;;;;;;;;;;;;4966624;28;19970;-49
2023/11/25 11:07:54;;;;;;;;;;;;;;;;;;4968494;28;19918;-45
2023/11/25 11:10:20;;;;;;;;;;;;;;;;;;4970158;28;19914;-46
2023/11/25 11:12:47;;;;;;;;;;;;;;;;;;4970937;28;19914;-50
2023/11/25 11:15:14;;;;;;;;;;;;;;;;;;4970097;28;20312;-45
2023/11/25 11:17:40;;;;;;;;;;;;;;;;;;4970527;28;19914;-47
2023/11/25 11:20:10;;;;;;;;;;;;;;;;;;4971694;28;20320;-47
2023/11/25 11:22:36;;;;;;;;;;;;;;;;;;4970847;28;19914;-48
2023/11/25 11:25:02;;;;;;;;;;;;;;;;;;4967995;28;19925;-48
2023/11/25 11:27:28;;;;;;;;;;;;;;;;;;4970887;28;20505;-48
2023/11/25 11:29:53;;;;;;;;;;;;;;;;;;4969184;28;20021;-46
2023/11/25 11:32:20;;;;;;;;;;;;;;;;;;4969551;28;19914;-48
2023/11/25 11:34:46;;;;;;;;;;;;;;;;;;4969784;28;19961;-48
2023/11/25 11:37:12;;;;;;;;;;;;;;;;;;4968555;28;19918;-46
2023/11/25 11:39:38;;;;;;;;;;;;;;;;;;4968879;28;20258;-47
2023/11/25 11:42:04;;;;;;;;;;;;;;;;;;4967078;28;19914;-49
2023/11/25 11:49:50;;;;;;;;;;;;;;;;;;4928794;29;20341;-44
2023/11/25 11:52:16;;;;;;;;;;;;;;;;;;4939444;29;19919;-45
2023/11/25 11:54:42;;;;;;;;;;;;;;;;;;4932803;29;19946;-45
2023/11/25 11:57:13;;;;;;;;;;;;;;;;;;4929481;29;19911;-45
2023/11/25 11:59:39;;;;;;;;;;;;;;;;;;4939888;29;19914;-44
2023/11/25 12:02:05;;;;;;;;;;;;;;;;;;4945181;29;20268;-45
2023/11/25 12:04:31;;;;;;;;;;;;;;;;;;4941551;28;19942;-45
2023/11/25 12:06:57;;;;;;;;;;;;;;;;;;4930752;29;19915;-44
2023/11/25 12:09:23;;;;;;;;;;;;;;;;;;4930789;29;19962;-44
2023/11/25 12:11:49;;;;;;;;;;;;;;;;;;4931046;29;19911;-46
2023/11/25 12:14:15;;;;;;;;;;;;;;;;;;4935795;29;19974;-45
2023/11/25 12:16:40;;;;;;;;;;;;;;;;;;4931694;29;19918;-44
2023/11/25 12:19:06;;;;;;;;;;;;;;;;;;4932920;29;20001;-45
2023/11/25 12:21:32;;;;;;;;;;;;;;;;;;4939147;29;19914;-45
2023/11/25 12:23:58;;;;;;;;;;;;;;;;;;4942862;29;19915;-45
2023/11/25 12:26:24;;;;;;;;;;;;;;;;;;4934610;29;19969;-43
2023/11/25 12:28:50;;;;;;;;;;;;;;;;;;4938057;29;19950;-45
2023/11/25 12:31:16;;;;;;;;;;;;;;;;;;4935096;29;19915;-44
2023/11/25 12:33:42;;;;;;;;;;;;;;;;;;4933136;29;20386;-45
2023/11/25 12:36:08;;;;;;;;;;;;;;;;;;4936042;29;19915;-43
2023/11/25 12:38:36;;;;;;;;;;;;;;;;;;4936133;29;19965;-43
2023/11/25 12:41:05;;;;;;;;;;;;;;;;;;4934833;29;19919;-43
2023/11/25 12:43:31;;;;;;;;;;;;;;;;;;4938605;29;19926;-46
2023/11/25 12:45:57;;;;;;;;;;;;;;;;;;4937724;29;19922;-45
2023/11/25 12:48:23;;;;;;;;;;;;;;;;;;4941519;29;19919;-45
2023/11/25 12:50:49;;;;;;;;;;;;;;;;;;4941765;29;19918;-44
2023/11/25 12:53:15;;;;;;;;;;;;;;;;;;4939811;29;19915;-44
2023/11/25 12:55:42;;;;;;;;;;;;;;;;;;4932246;29;19918;-45
2023/11/25 12:58:08;;;;;;;;;;;;;;;;;;4941346;28;20542;-46
2023/11/25 13:00:34;;;;;;;;;;;;;;;;;;4935047;29;19922;-45
2023/11/25 13:03:00;;;;;;;;;;;;;;;;;;4933659;29;19938;-45
2023/11/25 13:05:27;;;;;;;;;;;;;;;;;;4934458;29;19985;-44
2023/11/25 13:07:54;;;;;;;;;;;;;;;;;;4934241;29;19919;-45
2023/11/25 13:10:20;;;;;;;;;;;;;;;;;;4936527;29;19915;-45
2023/11/25 13:12:47;;;;;;;;;;;;;;;;;;4931781;29;20341;-47
2023/11/25 13:15:12;;;;;;;;;;;;;;;;;;4933280;29;19919;-46
2023/11/25 13:17:38;;;;;;;;;;;;;;;;;;4932470;29;20416;-48
2023/11/25 13:20:07;;;;;;;;;;;;;;;;;;4950301;29;19918;-44
2023/11/25 13:22:32;;;;;;;;;;;;;;;;;;4932478;29;20373;-45
2023/11/25 13:24:58;;;;;;;;;;;;;;;;;;4934511;29;19969;-46
2023/11/25 13:27:24;;;;;;;;;;;;;;;;;;4933937;29;19942;-45
2023/11/25 13:29:50;;;;;;;;;;;;;;;;;;4931796;29;19922;-46
2023/11/25 13:32:16;;;;;;;;;;;;;;;;;;4947253;28;19922;-45
2023/11/25 13:34:42;;;;;;;;;;;;;;;;;;4946866;28;19981;-46
2023/11/25 13:37:08;;;;;;;;;;;;;;;;;;4931660;29;19987;-47
2023/11/25 13:39:34;;;;;;;;;;;;;;;;;;4936126;29;19919;-46
2023/11/25 13:41:59;;;;;;;;;;;;;;;;;;4936064;29;19922;-46
2023/11/25 13:44:27;;;;;;;;;;;;;;;;;;4933748;29;20285;-46
2023/11/25 13:46:53;;;;;;;;;;;;;;;;;;4930872;29;19923;-46
2023/11/25 13:49:19;;;;;;;;;;;;;;;;;;4932871;29;20337;-45
2023/11/25 13:51:45;;;;;;;;;;;;;;;;;;4932225;29;19999;-45
2023/11/25 13:54:11;;;;;;;;;;;;;;;;;;4940786;29;20396;-45
2023/11/25 13:56:36;;;;;;;;;;;;;;;;;;4940240;29;19914;-46
2023/11/25 13:59:02;;;;;;;;;;;;;;;;;;4933563;29;19919;-46
2023/11/25 14:01:28;;;;;;;;;;;;;;;;;;4933957;29;19914;-46
2023/11/25 14:03:58;;;;;;;;;;;;;;;;;;4943523;29;19915;-47
2023/11/25 14:06:25;;;;;;;;;;;;;;;;;;4931824;29;19939;-47
2023/11/25 14:08:51;;;;;;;;;;;;;;;;;;4931714;29;19922;-45
2023/11/25 14:11:18;;;;;;;;;;;;;;;;;;4928808;29;20400;-46
2023/11/25 14:13:46;;;;;;;;;;;;;;;;;;4931938;29;19919;-45
2023/11/25 14:16:12;;;;;;;;;;;;;;;;;;4929795;29;19942;-46
2023/11/25 14:18:38;;;;;;;;;;;;;;;;;;4933246;29;19915;-45
2023/11/25 14:21:06;;;;;;;;;;;;;;;;;;4932571;29;20385;-46
2023/11/25 14:23:32;;;;;;;;;;;;;;;;;;4932219;29;19962;-46
2023/11/25 14:25:58;;;;;;;;;;;;;;;;;;4933432;29;20333;-47
2023/11/25 14:28:24;;;;;;;;;;;;;;;;;;4931956;29;19915;-45
2023/11/25 14:30:50;;;;;;;;;;;;;;;;;;4932194;29;19921;-45
2023/11/25 14:33:16;;;;;;;;;;;;;;;;;;4932335;29;19954;-45
2023/11/25 14:35:42;;;;;;;;;;;;;;;;;;4932318;29;20345;-47
2023/11/25 14:38:08;;;;;;;;;;;;;;;;;;4931566;29;19923;-48
2023/11/25 14:40:40;;;;;;;;;;;;;;;;;;4930335;29;20405;-46
2023/11/25 14:43:06;;;;;;;;;;;;;;;;;;4932281;29;20457;-46
2023/11/25 14:45:32;;;;;;;;;;;;;;;;;;4933738;29;19989;-46
2023/11/25 14:47:58;;;;;;;;;;;;;;;;;;4931909;29;19922;-49
2023/11/25 14:50:24;;;;;;;;;;;;;;;;;;4932816;29;19974;-46
2023/11/25 14:52:50;;;;;;;;;;;;;;;;;;4933234;29;19915;-48
2023/11/25 14:55:16;;;;;;;;;;;;;;;;;;4932558;29;20460;-46
2023/11/25 14:57:42;;;;;;;;;;;;;;;;;;4933196;29;19915;-45
2023/11/25 15:00:10;;;;;;;;;;;;;;;;;;4932075;29;20329;-46
2023/11/25 15:02:37;;;;;;;;;;;;;;;;;;4930951;29;19923;-48
2023/11/25 15:05:03;;;;;;;;;;;;;;;;;;4932397;29;20046;-49
2023/11/25 15:07:29;;;;;;;;;;;;;;;;;;4937015;29;19923;-46
2023/11/25 15:09:55;;;;;;;;;;;;;;;;;;4943402;29;19915;-48
2023/11/25 15:12:20;;;;;;;;;;;;;;;;;;4933183;29;20333;-49
2023/11/25 15:14:46;;;;;;;;;;;;;;;;;;4932020;29;20482;-48
2023/11/25 15:17:12;;;;;;;;;;;;;;;;;;4932425;29;19919;-46
2023/11/25 15:19:41;;;;;;;;;;;;;;;;;;4934193;29;20433;-48
2023/11/25 15:22:09;;;;;;;;;;;;;;;;;;4933240;29;19918;-47
2023/11/25 15:24:35;;;;;;;;;;;;;;;;;;4934818;29;19982;-49
2023/11/25 15:27:02;;;;;;;;;;;;;;;;;;4951729;29;20326;-49
2023/11/25 15:29:29;;;;;;;;;;;;;;;;;;4948878;28;19916;-49
2023/11/25 15:31:55;;;;;;;;;;;;;;;;;;4933028;29;19918;-49
2023/11/25 15:34:21;;;;;;;;;;;;;;;;;;4935270;29;19919;-47
2023/11/25 15:36:47;;;;;;;;;;;;;;;;;;4933255;29;19911;-45
2023/11/25 15:39:16;;;;;;;;;;;;;;;;;;4944856;29;19914;-45
2023/11/25 15:41:42;;;;;;;;;;;;;;;;;;4952607;28;20335;-46
2023/11/25 15:44:08;;;;;;;;;;;;;;;;;;4943978;28;20293;-46
2023/11/25 15:46:34;;;;;;;;;;;;;;;;;;4930654;29;19919;-45
2023/11/25 15:49:00;;;;;;;;;;;;;;;;;;4930787;29;20018;-49
2023/11/25 15:51:26;;;;;;;;;;;;;;;;;;4932262;29;19925;-48
2023/11/25 15:53:52;;;;;;;;;;;;;;;;;;4947269;29;20266;-46
2023/11/25 15:56:18;;;;;;;;;;;;;;;;;;4936103;29;19911;-45
2023/11/25 15:58:44;;;;;;;;;;;;;;;;;;4936359;29;19966;-48
2023/11/25 16:01:10;;;;;;;;;;;;;;;;;;4936803;29;19911;-45
2023/11/25 16:03:36;;;;;;;;;;;;;;;;;;4936549;29;19915;-46
2023/11/25 16:06:04;;;;;;;;;;;;;;;;;;4940164;29;19915;-47
2023/11/25 16:08:30;;;;;;;;;;;;;;;;;;4935159;29;19957;-45
2023/11/25 16:10:57;;;;;;;;;;;;;;;;;;4935635;29;19961;-47
2023/11/25 16:13:23;;;;;;;;;;;;;;;;;;4936071;29;19918;-49
2023/11/25 16:15:49;;;;;;;;;;;;;;;;;;4934417;29;20349;-49
2023/11/25 16:18:15;;;;;;;;;;;;;;;;;;4935377;29;19922;-46
2023/11/25 16:20:42;;;;;;;;;;;;;;;;;;4937182;29;20392;-46
2023/11/25 16:23:08;;;;;;;;;;;;;;;;;;4950985;28;19955;-46
2023/11/25 16:25:36;;;;;;;;;;;;;;;;;;4936051;29;20326;-48
2023/11/25 16:28:02;;;;;;;;;;;;;;;;;;4934063;29;20354;-47
2023/11/25 16:30:28;;;;;;;;;;;;;;;;;;4935372;29;19915;-49
2023/11/25 16:32:54;;;;;;;;;;;;;;;;;;4934205;29;19965;-47
2023/11/25 16:35:21;;;;;;;;;;;;;;;;;;4935230;29;19922;-46
2023/11/25 16:37:49;;;;;;;;;;;;;;;;;;4935749;29;19922;-45
2023/11/25 16:40:18;;;;;;;;;;;;;;;;;;4935502;29;19911;-45
2023/11/25 16:42:45;;;;;;;;;;;;;;;;;;4948805;29;19930;-47
2023/11/25 16:45:11;;;;;;;;;;;;;;;;;;4935042;29;19915;-47
2023/11/25 16:47:37;;;;;;;;;;;;;;;;;;4935490;29;20587;-44
2023/11/25 16:50:03;;;;;;;;;;;;;;;;;;4935187;29;19981;-45
2023/11/25 16:52:29;;;;;;;;;;;;;;;;;;4934081;29;19919;-47
2023/11/25 16:54:54;;;;;;;;;;;;;;;;;;4935534;29;19950;-46
2023/11/25 16:57:20;;;;;;;;;;;;;;;;;;4935498;29;19911;-48
2023/11/25 16:59:46;;;;;;;;;;;;;;;;;;4934950;29;19994;-45
2023/11/25 17:02:12;;;;;;;;;;;;;;;;;;4939011;29;19915;-44
2023/11/25 17:04:38;;;;;;;;;;;;;;;;;;4934539;29;19926;-47
2023/11/25 17:07:09;;;;;;;;;;;;;;;;;;4940549;29;20370;-46
2023/11/25 17:09:35;;;;;;;;;;;;;;;;;;4954449;28;19914;-45
2023/11/25 17:12:01;;;;;;;;;;;;;;;;;;4950218;29;20340;-46
2023/11/25 17:14:27;;;;;;;;;;;;;;;;;;4934496;29;19922;-46
2023/11/25 17:16:52;;;;;;;;;;;;;;;;;;4939955;29;19914;-46
2023/11/25 17:19:20;;;;;;;;;;;;;;;;;;4941820;29;20047;-46
2023/11/25 17:21:47;;;;;;;;;;;;;;;;;;4934668;29;19990;-46
2023/11/25 17:24:13;;;;;;;;;;;;;;;;;;4935115;29;19911;-46
2023/11/25 17:26:39;;;;;;;;;;;;;;;;;;4945977;29;19918;-46
2023/11/25 17:29:05;;;;;;;;;;;;;;;;;;4944071;28;19985;-45
2023/11/25 17:31:31;;;;;;;;;;;;;;;;;;4933761;29;20070;-46
2023/11/25 17:33:57;;;;;;;;;;;;;;;;;;4953563;29;20559;-45
2023/11/25 17:36:23;;;;;;;;;;;;;;;;;;4930775;29;19921;-44
2023/11/25 17:38:49;;;;;;;;;;;;;;;;;;4934597;29;20608;-47
2023/11/25 17:41:16;;;;;;;;;;;;;;;;;;4932691;29;20005;-45
2023/11/25 17:43:42;;;;;;;;;;;;;;;;;;4931347;29;20001;-45
2023/11/25 17:46:08;;;;;;;;;;;;;;;;;;4929651;29;20074;-45
2023/11/25 17:48:36;;;;;;;;;;;;;;;;;;4932111;29;19915;-45
2023/11/25 17:51:02;;;;;;;;;;;;;;;;;;4930260;29;20001;-46
2023/11/25 17:53:28;;;;;;;;;;;;;;;;;;4939178;29;20333;-47
2023/11/25 17:55:55;;;;;;;;;;;;;;;;;;4930186;29;19921;-44
2023/11/25 17:58:21;;;;;;;;;;;;;;;;;;4930925;29;20001;-44
2023/11/25 18:00:48;;;;;;;;;;;;;;;;;;4929627;29;19915;-44
2023/11/25 18:03:14;;;;;;;;;;;;;;;;;;4928480;29;19997;-46
2023/11/25 18:05:40;;;;;;;;;;;;;;;;;;4929210;29;19914;-44
2023/11/25 18:08:08;;;;;;;;;;;;;;;;;;4941314;29;20307;-45
2023/11/25 18:10:34;;;;;;;;;;;;;;;;;;4930935;29;19990;-44
2023/11/25 18:13:00;;;;;;;;;;;;;;;;;;4931693;29;20005;-46
2023/11/25 18:15:26;;;;;;;;;;;;;;;;;;4930087;29;19954;-44
2023/11/25 18:17:52;;;;;;;;;;;;;;;;;;4929772;29;20383;-48
2023/11/25 18:20:18;;;;;;;;;;;;;;;;;;4931509;29;19978;-46
2023/11/25 18:22:44;;;;;;;;;;;;;;;;;;4936203;29;20389;-48
2023/11/25 18:25:10;;;;;;;;;;;;;;;;;;4936862;29;19922;-45
2023/11/25 18:27:36;;;;;;;;;;;;;;;;;;4930247;29;19923;-46
2023/11/25 18:30:02;;;;;;;;;;;;;;;;;;4930656;29;19925;-44
2023/11/25 18:32:28;;;;;;;;;;;;;;;;;;4931296;29;20469;-48
2023/11/25 18:34:53;;;;;;;;;;;;;;;;;;4927873;29;19915;-45
2023/11/25 18:37:19;;;;;;;;;;;;;;;;;;4930307;29;20409;-45
2023/11/25 18:39:45;;;;;;;;;;;;;;;;;;4931225;29;19910;-44
2023/11/25 18:42:11;;;;;;;;;;;;;;;;;;4931583;29;19966;-45
2023/11/25 18:44:37;;;;;;;;;;;;;;;;;;4929603;29;19962;-46
2023/11/25 18:47:03;;;;;;;;;;;;;;;;;;4931566;29;20323;-45
2023/11/25 18:49:29;;;;;;;;;;;;;;;;;;4934378;29;19961;-48
2023/11/25 18:52:01;;;;;;;;;;;;;;;;;;4928182;29;19938;-47
2023/11/25 18:54:29;;;;;;;;;;;;;;;;;;4929110;29;19945;-46
2023/11/25 18:56:55;;;;;;;;;;;;;;;;;;4929646;29;20023;-48
2023/11/25 18:59:20;;;;;;;;;;;;;;;;;;4928127;29;20017;-47
2023/11/25 19:01:46;;;;;;;;;;;;;;;;;;4925907;29;19971;-47
2023/11/25 19:04:12;;;;;;;;;;;;;;;;;;4930432;29;19919;-47
2023/11/25 19:06:38;;;;;;;;;;;;;;;;;;4930591;29;19918;-45
2023/11/25 19:09:07;;;;;;;;;;;;;;;;;;4927230;29;20134;-45
2023/11/25 19:11:34;;;;;;;;;;;;;;;;;;4926478;29;19962;-45
2023/11/25 19:14:00;;;;;;;;;;;;;;;;;;4950544;28;20131;-45
2023/11/25 19:16:27;;;;;;;;;;;;;;;;;;4949442;28;20266;-46
2023/11/25 19:18:53;;;;;;;;;;;;;;;;;;4927933;29;20010;-44
2023/11/25 19:21:19;;;;;;;;;;;;;;;;;;4932292;29;20433;-45
2023/11/25 19:23:45;;;;;;;;;;;;;;;;;;4927763;29;19919;-44
2023/11/25 19:26:11;;;;;;;;;;;;;;;;;;4927488;29;19926;-45
2023/11/25 19:28:37;;;;;;;;;;;;;;;;;;4931767;29;20077;-46
2023/11/25 19:31:02;;;;;;;;;;;;;;;;;;4931278;29;19915;-45
2023/11/25 19:33:28;;;;;;;;;;;;;;;;;;4931990;29;20391;-44
2023/11/25 19:35:54;;;;;;;;;;;;;;;;;;4947518;28;19915;-45
2023/11/25 19:38:20;;;;;;;;;;;;;;;;;;4934564;29;19977;-48
2023/11/25 19:40:46;;;;;;;;;;;;;;;;;;4940938;29;19915;-45
2023/11/25 19:43:13;;;;;;;;;;;;;;;;;;4931065;29;20397;-44
2023/11/25 19:45:39;;;;;;;;;;;;;;;;;;4937141;29;20002;-47
2023/11/25 19:48:05;;;;;;;;;;;;;;;;;;4930623;29;20460;-48
2023/11/25 19:50:32;;;;;;;;;;;;;;;;;;4931432;29;20358;-45
2023/11/25 19:52:57;;;;;;;;;;;;;;;;;;4930441;29;19915;-45
2023/11/25 19:55:23;;;;;;;;;;;;;;;;;;4931856;29;19922;-43
2023/11/25 19:57:49;;;;;;;;;;;;;;;;;;4934657;29;19950;-43
2023/11/25 20:00:15;;;;;;;;;;;;;;;;;;4931010;29;20030;-43
2023/11/25 20:02:41;;;;;;;;;;;;;;;;;;4948069;28;19946;-44
2023/11/25 20:05:07;;;;;;;;;;;;;;;;;;4930878;29;19919;-44
2023/11/25 20:07:33;;;;;;;;;;;;;;;;;;4939966;29;20017;-45
2023/11/25 20:09:59;;;;;;;;;;;;;;;;;;4931922;29;20005;-44
2023/11/25 20:12:25;;;;;;;;;;;;;;;;;;4931590;29;20432;-45
2023/11/25 20:14:52;;;;;;;;;;;;;;;;;;4931638;29;20294;-45
2023/11/25 20:17:17;;;;;;;;;;;;;;;;;;4933619;29;19941;-44
2023/11/25 20:19:48;;;;;;;;;;;;;;;;;;4930099;29;20417;-46
2023/11/25 20:22:14;;;;;;;;;;;;;;;;;;4932455;28;19919;-45
2023/11/25 20:24:40;;;;;;;;;;;;;;;;;;4933593;29;20608;-44
2023/11/25 20:27:06;;;;;;;;;;;;;;;;;;4935921;29;20175;-46
2023/11/25 20:29:32;;;;;;;;;;;;;;;;;;4951175;28;19910;-46
2023/11/25 20:31:58;;;;;;;;;;;;;;;;;;4932893;29;19981;-45
2023/11/25 20:34:24;;;;;;;;;;;;;;;;;;4936358;29;19926;-45
2023/11/25 20:36:50;;;;;;;;;;;;;;;;;;4930721;29;20320;-45
2023/11/25 20:39:17;;;;;;;;;;;;;;;;;;4943280;29;19915;-45
2023/11/25 20:41:42;;;;;;;;;;;;;;;;;;4949126;28;20451;-46
2023/11/25 20:44:10;;;;;;;;;;;;;;;;;;4933712;29;19922;-44
2023/11/25 20:46:35;;;;;;;;;;;;;;;;;;4929664;29;19967;-44
2023/11/25 20:49:01;;;;;;;;;;;;;;;;;;4938540;29;20354;-43
2023/11/25 20:51:27;;;;;;;;;;;;;;;;;;4937248;29;19918;-44
2023/11/25 20:53:53;;;;;;;;;;;;;;;;;;4934296;29;20412;-44
2023/11/25 20:56:19;;;;;;;;;;;;;;;;;;4930336;29;19915;-45
2023/11/25 20:58:45;;;;;;;;;;;;;;;;;;4928914;29;19925;-48
2023/11/25 21:01:11;;;;;;;;;;;;;;;;;;4939311;29;19918;-47
2023/11/25 21:03:37;;;;;;;;;;;;;;;;;;4934025;29;19915;-45
2023/11/25 21:06:03;;;;;;;;;;;;;;;;;;4936640;29;19970;-44
2023/11/25 21:08:29;;;;;;;;;;;;;;;;;;4930271;29;19962;-44
2023/11/25 21:10:55;;;;;;;;;;;;;;;;;;4930566;29;19957;-45
2023/11/25 21:13:21;;;;;;;;;;;;;;;;;;4937468;29;19926;-44
2023/11/25 21:15:49;;;;;;;;;;;;;;;;;;4934839;29;19922;-46
2023/11/25 21:18:15;;;;;;;;;;;;;;;;;;4948122;28;19993;-46
2023/11/25 21:20:41;;;;;;;;;;;;;;;;;;4935032;29;19922;-45
2023/11/25 21:23:07;;;;;;;;;;;;;;;;;;4931397;29;19911;-44
2023/11/25 21:25:32;;;;;;;;;;;;;;;;;;4936855;29;19924;-44
2023/11/25 21:27:58;;;;;;;;;;;;;;;;;;4930436;29;20367;-44
2023/11/25 21:30:24;;;;;;;;;;;;;;;;;;4930018;29;19918;-46
2023/11/25 21:32:50;;;;;;;;;;;;;;;;;;4929367;29;20397;-46
2023/11/25 21:35:16;;;;;;;;;;;;;;;;;;4930041;29;19922;-46
2023/11/25 21:37:42;;;;;;;;;;;;;;;;;;4928469;29;19914;-46
2023/11/25 21:40:10;;;;;;;;;;;;;;;;;;4939658;29;20373;-45
2023/11/25 21:42:36;;;;;;;;;;;;;;;;;;4937762;28;20212;-44
2023/11/25 21:45:02;;;;;;;;;;;;;;;;;;4930896;29;20297;-45
2023/11/25 21:47:28;;;;;;;;;;;;;;;;;;4927704;29;19929;-45
2023/11/25 21:49:54;;;;;;;;;;;;;;;;;;4929733;29;20460;-45